Time;durP1;ratioP1;P1;durP2;ratioP2;P2;SDS_P1;SDS_P2;PMS_P1;PMS_P2;Temp;Humidity;BMP_temperature;BMP_pressure;BME280_temperature;BME280_humidity;BME280_pressure;Samples;Min_cycle;Max_cycle;Signal;HPM_P1;HPM_P2
2020/12/22 03:48:09;;;;;;;4.72;3.95;;;8.80;99.90;;;;;;5071007;23;95255;-77
2020/12/22 03:50:34;;;;;;;5.15;4.40;;;8.80;99.90;;;;;;4934794;28;92848;-78
2020/12/22 03:53:01;;;;;;;2.97;2.75;;;8.70;99.90;;;;;;4941758;28;91955;-77
2020/12/22 03:55:27;;;;;;;2.00;1.90;;;8.60;99.90;;;;;;4943383;28;92009;-78
2020/12/22 03:57:53;;;;;;;2.30;2.20;;;8.70;99.90;;;;;;4941129;28;92740;-78
2020/12/22 04:00:19;;;;;;;2.40;2.30;;;8.80;99.90;;;;;;4942738;28;92235;-78
2020/12/22 04:02:45;;;;;;;2.13;2.03;;;8.90;99.90;;;;;;4944756;28;92051;-77
2020/12/22 04:05:10;;;;;;;1.88;1.70;;;8.90;99.90;;;;;;4942106;28;90980;-78
2020/12/22 04:07:36;;;;;;;1.95;1.85;;;9.10;99.90;;;;;;4943454;28;93183;-78
2020/12/22 04:10:04;;;;;;;2.10;2.00;;;9.10;99.90;;;;;;4941439;28;92008;-78
2020/12/22 04:12:30;;;;;;;1.60;1.50;;;9.10;99.90;;;;;;4942586;28;93365;-77
2020/12/22 04:14:56;;;;;;;2.13;1.90;;;9.20;99.90;;;;;;4934405;28;92189;-78
2020/12/22 04:17:21;;;;;;;1.40;1.40;;;9.20;99.90;;;;;;4924655;28;94459;-77
2020/12/22 04:19:47;;;;;;;1.70;1.60;;;9.20;99.90;;;;;;4942165;28;92062;-78
2020/12/22 04:22:13;;;;;;;1.77;1.67;;;9.20;99.90;;;;;;4943382;28;91970;-78
2020/12/22 04:24:38;;;;;;;1.92;1.83;;;9.20;99.90;;;;;;4942522;28;92173;-78
2020/12/22 04:27:04;;;;;;;2.00;1.90;;;9.20;99.90;;;;;;4943498;28;92179;-78
2020/12/22 04:29:30;;;;;;;2.20;2.10;;;9.10;99.90;;;;;;4946211;28;91370;-77
2020/12/22 04:31:55;;;;;;;1.55;1.45;;;9.10;99.90;;;;;;4947933;28;92078;-76
2020/12/22 04:34:21;;;;;;;1.73;1.63;;;9.10;99.90;;;;;;4930775;28;92006;-77
2020/12/22 04:36:47;;;;;;;1.80;1.70;;;9.10;99.90;;;;;;4929271;28;94646;-76
2020/12/22 04:39:13;;;;;;;2.15;2.00;;;9.10;99.90;;;;;;4944994;28;93301;-78
2020/12/22 04:41:43;;;;;;;2.20;2.10;;;9.00;99.90;;;;;;4946086;28;91449;-78
2020/12/22 04:44:08;;;;;;;2.17;2.08;;;9.00;99.90;;;;;;4945228;28;91768;-78
2020/12/22 04:46:35;;;;;;;1.75;1.65;;;9.00;99.90;;;;;;4942176;28;92207;-77
2020/12/22 04:49:02;;;;;;;1.70;1.65;;;9.00;99.90;;;;;;4925329;28;92005;-78
2020/12/22 04:51:29;;;;;;;2.25;1.98;;;9.00;99.90;;;;;;4918531;28;92840;-78
2020/12/22 04:53:57;;;;;;;1.92;1.83;;;8.90;99.90;;;;;;4926420;28;91246;-76
2020/12/22 04:56:23;;;;;;;1.80;1.70;;;8.90;99.90;;;;;;4924055;28;92744;-77
2020/12/22 04:58:49;;;;;;;1.90;1.73;;;8.90;99.90;;;;;;4919574;28;92043;-77
2020/12/22 05:01:17;;;;;;;1.02;0.55;;;8.90;99.90;;;;;;4925360;28;92821;-77
2020/12/22 05:03:43;;;;;;;1.63;1.52;;;8.90;99.90;;;;;;4905959;28;93607;-78
2020/12/22 05:06:09;;;;;;;1.80;1.75;;;8.80;99.90;;;;;;4912782;28;92438;-78
2020/12/22 05:08:35;;;;;;;2.53;1.63;;;8.80;99.90;;;;;;4909151;28;92044;-78
2020/12/22 05:11:01;;;;;;;2.10;2.00;;;8.80;99.90;;;;;;4907663;28;91980;-78
2020/12/22 05:13:26;;;;;;;2.20;2.10;;;9.10;99.90;;;;;;4906688;28;92140;-76
2020/12/22 05:15:53;;;;;;;0.60;0.60;;;8.70;99.90;;;;;;4921217;28;92356;-78
2020/12/22 05:18:24;;;;;;;2.05;1.95;;;8.80;99.90;;;;;;4908899;28;92261;-78
2020/12/22 05:20:50;;;;;;;1.73;1.67;;;8.80;99.90;;;;;;4916977;28;92036;-78
2020/12/22 05:23:17;;;;;;;1.73;1.73;;;8.80;99.90;;;;;;4906824;28;92110;-77
2020/12/22 05:25:45;;;;;;;0.60;0.60;;;8.80;99.90;;;;;;4910475;28;93441;-77
2020/12/22 05:28:22;;;;;;;0.80;0.80;;;8.80;99.90;;;;;;4919601;28;93245;-78
2020/12/22 05:30:49;;;;;;;1.60;1.60;;;8.80;99.90;;;;;;4919735;28;92115;-78
2020/12/22 05:33:16;;;;;;;2.03;1.92;;;8.80;99.90;;;;;;4923322;28;92134;-76
2020/12/22 05:35:46;;;;;;;1.67;1.58;;;8.80;99.90;;;;;;4924419;28;92023;-78
2020/12/22 05:38:13;;;;;;;2.35;1.38;;;8.80;99.90;;;;;;4923955;28;91949;-78
2020/12/22 05:40:41;;;;;;;1.80;1.70;;;8.80;99.90;;;;;;4918792;28;91767;-78
2020/12/22 05:43:07;;;;;;;1.10;0.75;;;8.80;99.90;;;;;;4919833;28;90643;-78
2020/12/22 05:45:34;;;;;;;1.95;1.70;;;8.90;99.90;;;;;;4925129;28;92031;-77
2020/12/22 05:48:01;;;;;;;0.90;0.90;;;8.90;99.80;;;;;;4900048;28;94495;-76
2020/12/22 05:50:27;;;;;;;1.25;1.00;;;8.90;99.10;;;;;;4916255;28;92975;-78
2020/12/22 05:52:55;;;;;;;2.28;2.17;;;9.00;98.30;;;;;;4923739;28;92152;-79
2020/12/22 05:55:41;;;;;;;2.17;1.90;;;9.00;98.60;;;;;;4922378;28;92004;-79
2020/12/22 05:58:11;;;;;;;2.30;2.20;;;9.00;98.80;;;;;;4923416;28;92872;-78
2020/12/22 06:00:38;;;;;;;2.20;1.92;;;9.10;98.40;;;;;;4924165;28;91988;-79
2020/12/22 06:03:06;;;;;;;2.42;2.22;;;9.10;97.90;;;;;;4925495;28;92010;-80
2020/12/22 06:05:38;;;;;;;1.00;1.00;;;9.10;98.50;;;;;;4925518;28;92660;-80
2020/12/22 06:08:05;;;;;;;1.90;1.80;;;9.10;97.80;;;;;;4925307;28;91397;-80
2020/12/22 06:10:32;;;;;;;3.25;2.00;;;9.10;97.90;;;;;;4921609;28;91434;-80
2020/12/22 06:12:59;;;;;;;2.00;1.90;;;9.10;97.60;;;;;;4925390;28;92117;-80
2020/12/22 06:15:25;;;;;;;1.90;1.80;;;8.90;97.60;;;;;;4910191;28;92734;-80
2020/12/22 06:17:51;;;;;;;1.60;1.50;;;9.00;97.90;;;;;;4919262;28;93685;-79
2020/12/22 06:20:25;;;;;;;2.05;1.95;;;9.00;97.20;;;;;;4924251;28;91795;-81
2020/12/22 06:22:51;;;;;;;2.35;2.10;;;8.90;97.30;;;;;;4914865;28;91423;-78
2020/12/22 06:25:19;;;;;;;2.08;1.98;;;9.00;97.40;;;;;;4912752;28;92258;-81
2020/12/22 06:27:45;;;;;;;0.63;0.50;;;9.00;97.30;;;;;;4923763;28;92224;-80
2020/12/22 06:30:12;;;;;;;2.17;1.50;;;9.00;97.00;;;;;;4925270;28;92080;-81
2020/12/22 06:32:38;;;;;;;2.13;2.03;;;9.00;97.10;;;;;;4916437;28;90896;-78
2020/12/22 06:35:30;;;;;;;2.00;1.90;;;9.00;97.70;;;;;;4921883;28;92110;-80
2020/12/22 06:37:57;;;;;;;2.08;1.98;;;9.00;97.70;;;;;;4917709;28;91912;-78
2020/12/22 06:40:52;;;;;;;1.70;1.60;;;9.00;97.60;;;;;;4924025;28;92959;-79
2020/12/22 06:43:42;;;;;;;2.92;2.20;;;9.00;97.70;;;;;;4912069;28;91972;-80
2020/12/22 06:46:27;;;;;;;2.30;2.20;;;8.90;97.40;;;;;;4919026;28;92061;-80
2020/12/22 06:48:53;;;;;;;4.72;2.30;;;8.80;97.30;;;;;;4916810;28;92734;-81
2020/12/22 06:51:28;;;;;;;1.83;1.73;;;9.20;97.50;;;;;;4924263;28;92663;-80
2020/12/22 06:53:54;;;;;;;2.03;1.92;;;9.00;97.30;;;;;;4916071;28;93200;-79
2020/12/22 06:56:58;;;;;;;1.52;1.50;;;9.00;97.70;;;;;;4922508;28;92232;-80
2020/12/22 06:59:44;;;;;;;2.13;2.03;;;8.90;97.70;;;;;;4840920;29;91541;-80
2020/12/22 07:02:32;;;;;;;2.28;2.17;;;8.90;97.80;;;;;;4837428;29;92166;-81
2020/12/22 07:04:58;;;;;;;3.28;2.40;;;9.00;97.30;;;;;;4899244;28;91695;-79
2020/12/22 07:07:24;;;;;;;2.47;2.28;;;9.10;97.00;;;;;;4919767;28;93170;-77
2020/12/22 07:10:00;;;;;;;2.00;1.90;;;9.10;96.90;;;;;;4920062;28;92100;-77
2020/12/22 07:12:26;;;;;;;1.70;1.60;;;9.50;95.50;;;;;;4919335;28;91700;-81
2020/12/22 07:14:52;;;;;;;1.95;1.90;;;9.80;94.90;;;;;;4919872;28;92096;-79
2020/12/22 07:17:19;;;;;;;1.85;1.85;;;9.40;94.90;;;;;;4921013;28;92315;-80
2020/12/22 07:19:51;;;;;;;2.35;2.25;;;9.50;94.80;;;;;;4917047;28;93119;-77
2020/12/22 07:22:18;;;;;;;1.52;1.52;;;9.80;93.40;;;;;;4917915;28;92860;-80
2020/12/22 07:24:44;;;;;;;1.85;0.80;;;9.50;93.40;;;;;;4920885;28;91289;-80
2020/12/22 07:27:11;;;;;;;1.80;1.70;;;9.50;93.80;;;;;;4918998;28;91658;-79
2020/12/22 07:29:41;;;;;;;2.03;1.92;;;9.50;94.00;;;;;;4918807;28;92105;-79
2020/12/22 07:32:08;;;;;;;1.65;1.55;;;9.50;94.10;;;;;;4916934;28;93001;-78
2020/12/22 07:34:35;;;;;;;2.20;2.00;;;9.50;94.20;;;;;;4922310;28;92544;-80
2020/12/22 07:37:11;;;;;;;2.25;2.15;;;9.50;94.80;;;;;;4918397;28;92078;-76
2020/12/22 07:39:37;;;;;;;1.90;1.80;;;9.50;94.20;;;;;;4910869;28;91975;-79
2020/12/22 07:42:15;;;;;;;1.70;1.65;;;9.60;93.20;;;;;;4918482;28;91953;-76
2020/12/22 07:44:42;;;;;;;0.60;0.60;;;9.70;93.40;;;;;;4914473;28;92069;-78
2020/12/22 07:47:09;;;;;;;3.00;1.63;;;9.80;92.70;;;;;;4908198;28;93292;-79
2020/12/22 07:49:38;;;;;;;2.05;1.95;;;9.90;92.80;;;;;;4902340;28;93403;-79
2020/12/22 07:52:04;;;;;;;1.83;1.73;;;10.00;92.60;;;;;;4931147;28;91940;-78
2020/12/22 07:54:30;;;;;;;1.95;0.60;;;10.20;92.50;;;;;;4921400;28;92378;-78
2020/12/22 07:57:00;;;;;;;1.80;1.70;;;10.40;91.90;;;;;;4926218;28;94256;-78
2020/12/22 07:59:27;;;;;;;1.63;1.63;;;10.60;91.80;;;;;;4930360;28;92286;-80
2020/12/22 08:01:54;;;;;;;1.98;1.98;;;10.60;91.50;;;;;;4930559;28;91878;-77
2020/12/22 08:04:21;;;;;;;0.68;0.68;;;10.70;91.60;;;;;;4927111;28;91809;-80
2020/12/22 08:06:57;;;;;;;1.80;1.70;;;11.10;91.00;;;;;;4926277;28;92202;-80
2020/12/22 08:09:30;;;;;;;2.58;2.38;;;11.30;90.20;;;;;;4941734;28;91875;-80
2020/12/22 08:12:04;;;;;;;1.63;1.52;;;11.10;90.20;;;;;;4912764;28;92013;-79
2020/12/22 08:14:38;;;;;;;1.80;1.70;;;11.10;88.70;;;;;;4923613;28;91327;-80
2020/12/22 08:17:09;;;;;;;2.55;2.08;;;11.20;86.40;;;;;;4920598;28;92957;-78
2020/12/22 08:19:36;;;;;;;2.22;2.13;;;11.10;86.70;;;;;;4928875;28;94092;-80
2020/12/22 08:22:04;;;;;;;1.83;1.75;;;11.30;86.20;;;;;;4931553;28;93005;-79
2020/12/22 08:24:32;;;;;;;1.80;0.75;;;11.50;85.40;;;;;;4937287;28;91523;-80
2020/12/22 08:26:58;;;;;;;2.08;1.98;;;11.70;84.30;;;;;;4940159;28;93262;-80
2020/12/22 08:29:25;;;;;;;1.95;1.85;;;11.90;83.40;;;;;;4938336;28;92311;-79
2020/12/22 08:31:59;;;;;;;2.13;2.00;;;12.00;81.90;;;;;;4932611;28;92377;-80
2020/12/22 08:34:24;;;;;;;1.67;1.63;;;12.20;81.20;;;;;;4928277;28;92281;-81
2020/12/22 08:36:50;;;;;;;1.95;1.85;;;12.30;80.50;;;;;;4927381;28;93131;-81
2020/12/22 08:39:27;;;;;;;1.90;1.80;;;12.40;80.00;;;;;;4917399;28;91709;-81
2020/12/22 08:41:57;;;;;;;2.60;2.40;;;12.40;80.70;;;;;;4914363;28;92001;-80
2020/12/22 08:44:27;;;;;;;2.00;1.90;;;13.00;78.40;;;;;;4921280;28;91812;-81
2020/12/22 08:46:54;;;;;;;1.67;1.57;;;12.90;78.30;;;;;;4926960;28;94431;-80
2020/12/22 08:49:24;;;;;;;1.90;1.80;;;13.20;77.30;;;;;;4922203;28;93073;-77
2020/12/22 08:51:50;;;;;;;1.85;1.75;;;13.30;76.20;;;;;;4925050;28;92120;-81
2020/12/22 08:54:16;;;;;;;3.08;1.92;;;13.20;75.90;;;;;;4933746;28;92174;-81
2020/12/22 08:56:42;;;;;;;2.30;2.10;;;13.10;76.80;;;;;;4920987;28;92117;-81
2020/12/22 08:59:12;;;;;;;2.00;1.90;;;12.90;76.70;;;;;;4910141;28;93736;-80
2020/12/22 09:01:51;;;;;;;2.90;2.08;;;12.60;78.40;;;;;;4918752;28;92084;-80
2020/12/22 09:04:26;;;;;;;1.85;1.75;;;12.60;78.40;;;;;;4917143;28;91211;-80
2020/12/22 09:06:52;;;;;;;2.70;2.50;;;12.40;79.30;;;;;;4923520;28;92305;-81
2020/12/22 09:09:32;;;;;;;2.53;2.33;;;12.70;79.30;;;;;;4922179;28;92035;-81
2020/12/22 09:12:08;;;;;;;2.45;2.25;;;12.70;78.60;;;;;;4911926;28;92382;-80
2020/12/22 09:14:45;;;;;;;2.00;1.90;;;12.70;78.20;;;;;;4922889;28;91999;-80
2020/12/22 09:17:36;;;;;;;2.72;2.53;;;12.40;79.90;;;;;;4913766;28;92435;-81
2020/12/22 09:20:03;;;;;;;1.70;1.60;;;12.10;81.70;;;;;;4912582;28;92015;-82
2020/12/22 09:22:31;;;;;;;2.22;2.13;;;12.10;81.00;;;;;;4921687;28;92007;-82
2020/12/22 09:24:58;;;;;;;2.08;1.98;;;12.20;80.70;;;;;;4919774;28;91944;-80
2020/12/22 09:27:42;;;;;;;2.40;2.22;;;12.30;80.80;;;;;;4922471;28;92385;-81
2020/12/22 09:30:12;;;;;;;1.90;1.80;;;12.40;79.80;;;;;;4914856;28;92284;-80
2020/12/22 09:32:38;;;;;;;2.30;2.20;;;12.90;77.20;;;;;;4912255;28;92593;-78
2020/12/22 09:35:05;;;;;;;2.65;1.80;;;12.80;77.70;;;;;;4922552;28;92019;-78
2020/12/22 09:37:31;;;;;;;1.75;1.65;;;13.10;76.10;;;;;;4918564;28;92973;-76
2020/12/22 09:39:56;;;;;;;2.17;1.60;;;13.40;75.10;;;;;;4914937;28;92980;-77
2020/12/22 09:42:23;;;;;;;1.80;1.70;;;14.40;71.10;;;;;;4921515;28;92070;-76
2020/12/22 09:44:50;;;;;;;1.65;1.50;;;14.30;71.60;;;;;;4920654;28;92481;-79
2020/12/22 09:47:16;;;;;;;1.63;1.50;;;14.80;70.70;;;;;;4924036;28;91873;-78
2020/12/22 09:49:42;;;;;;;1.80;1.70;;;15.00;69.90;;;;;;4937844;28;92870;-79
2020/12/22 09:52:07;;;;;;;1.77;1.58;;;15.60;68.00;;;;;;4941541;28;92263;-83
2020/12/22 09:54:34;;;;;;;1.45;1.42;;;16.10;66.80;;;;;;4940102;28;91795;-83
2020/12/22 09:57:00;;;;;;;2.05;1.95;;;16.40;65.60;;;;;;4951887;28;92589;-79
2020/12/22 09:59:25;;;;;;;1.63;1.52;;;16.20;65.90;;;;;;4946714;28;92096;-80
2020/12/22 10:01:51;;;;;;;1.58;1.48;;;16.00;65.00;;;;;;4941823;28;93782;-79
2020/12/22 10:04:17;;;;;;;1.80;1.70;;;15.40;67.50;;;;;;4943406;28;92075;-79
2020/12/22 10:06:43;;;;;;;2.08;1.98;;;15.10;68.70;;;;;;4941303;28;92843;-80
2020/12/22 10:09:09;;;;;;;1.60;1.52;;;14.80;70.30;;;;;;4947264;28;93094;-78
2020/12/22 10:11:36;;;;;;;1.90;1.80;;;14.50;70.80;;;;;;4946788;28;92042;-78
2020/12/22 10:14:05;;;;;;;1.60;1.50;;;14.30;71.10;;;;;;4943807;28;93221;-79
2020/12/22 10:16:32;;;;;;;1.70;1.60;;;14.20;71.60;;;;;;4946220;28;92001;-78
2020/12/22 10:18:58;;;;;;;0.80;0.80;;;14.30;71.00;;;;;;4933650;28;91874;-78
2020/12/22 10:21:24;;;;;;;2.28;1.70;;;14.40;70.40;;;;;;4942699;28;91957;-77
2020/12/22 10:23:51;;;;;;;1.92;1.83;;;14.50;70.30;;;;;;4921295;28;92617;-78
2020/12/22 10:26:19;;;;;;;1.77;1.67;;;14.50;69.10;;;;;;4925318;28;94139;-77
2020/12/22 10:28:46;;;;;;;2.00;1.90;;;14.50;69.20;;;;;;4919963;28;96282;-80
2020/12/22 10:31:18;;;;;;;2.08;1.98;;;15.00;67.50;;;;;;4941385;28;92036;-78
2020/12/22 10:33:44;;;;;;;1.75;1.65;;;15.30;66.50;;;;;;4934436;28;92088;-77
2020/12/22 10:36:14;;;;;;;1.95;1.85;;;15.20;65.90;;;;;;4941316;28;92316;-79
2020/12/22 10:38:40;;;;;;;1.87;1.77;;;14.50;67.70;;;;;;4937057;28;92098;-80
2020/12/22 10:41:06;;;;;;;2.00;1.90;;;14.10;68.90;;;;;;4942894;28;91976;-79
2020/12/22 10:43:31;;;;;;;1.45;1.35;;;13.80;70.50;;;;;;4937817;28;91161;-77
2020/12/22 10:45:58;;;;;;;1.73;1.40;;;13.40;71.50;;;;;;4935349;28;92202;-75
2020/12/22 10:48:24;;;;;;;1.55;1.45;;;13.10;72.60;;;;;;4935829;28;92809;-77
2020/12/22 10:50:50;;;;;;;1.80;1.70;;;12.90;73.70;;;;;;4935477;28;93148;-77
2020/12/22 10:53:16;;;;;;;2.10;2.00;;;;;;;;;;4937266;28;91992;-77
2020/12/22 10:55:41;;;;;;;1.70;1.65;;;12.70;74.00;;;;;;4923113;28;93791;-80
2020/12/22 10:58:08;;;;;;;1.77;1.67;;;13.30;73.20;;;;;;4944324;28;92956;-79
2020/12/22 11:00:34;;;;;;;1.95;1.85;;;13.40;72.00;;;;;;4943083;28;91888;-77
2020/12/22 11:03:05;;;;;;;1.90;1.48;;;13.30;73.00;;;;;;4941241;28;92067;-77
2020/12/22 11:08:16;;;;;;;1.80;1.70;;;13.00;73.30;;;;;;4942649;28;91996;-78
2020/12/22 11:10:42;;;;;;;2.22;2.10;;;12.80;73.90;;;;;;4946170;28;92773;-78
2020/12/22 11:13:07;;;;;;;1.70;1.60;;;12.70;75.50;;;;;;4943461;28;92070;-79
2020/12/22 11:15:34;;;;;;;1.83;1.73;;;12.70;75.20;;;;;;4945496;28;93156;-80
2020/12/22 11:18:00;;;;;;;2.10;1.90;;;12.70;75.20;;;;;;4941259;28;92821;-80
2020/12/22 11:20:25;;;;;;;8.02;2.22;;;12.80;75.80;;;;;;4936357;28;92014;-78
2020/12/22 11:22:51;;;;;;;4.78;2.20;;;12.80;75.90;;;;;;4934420;28;92372;-76
2020/12/22 11:25:18;;;;;;;2.83;2.28;;;12.60;76.50;;;;;;4937196;28;93285;-77
2020/12/22 11:27:44;;;;;;;1.80;1.70;;;12.60;76.40;;;;;;4936799;28;92240;-78
2020/12/22 11:30:10;;;;;;;2.05;1.95;;;12.70;76.20;;;;;;4941467;28;92793;-78
2020/12/22 11:32:35;;;;;;;1.73;1.65;;;12.70;76.00;;;;;;4938660;28;91345;-77
2020/12/22 11:35:03;;;;;;;3.03;1.92;;;12.70;76.60;;;;;;4930057;28;92032;-77
2020/12/22 11:37:28;;;;;;;2.22;2.13;;;12.80;75.80;;;;;;4936577;28;92023;-78
2020/12/22 11:39:55;;;;;;;1.95;1.85;;;;;;;;;;4939802;28;92904;-79
2020/12/22 11:42:20;;;;;;;2.28;2.17;;;12.80;74.70;;;;;;4933156;28;92177;-76
2020/12/22 11:44:46;;;;;;;1.80;1.70;;;13.00;75.60;;;;;;4938653;28;92418;-78
2020/12/22 11:47:13;;;;;;;1.80;1.70;;;13.20;74.80;;;;;;4932902;28;93320;-77
2020/12/22 11:49:42;;;;;;;1.10;0.70;;;13.40;74.20;;;;;;4934069;28;92010;-76
2020/12/22 11:52:08;;;;;;;6.10;3.30;;;13.50;74.00;;;;;;4944474;28;92076;-79
2020/12/22 11:54:35;;;;;;;2.05;1.95;;;13.60;73.70;;;;;;4938328;28;92423;-77
2020/12/22 11:57:01;;;;;;;2.42;2.22;;;13.70;72.60;;;;;;4937114;28;91418;-77
2020/12/22 11:59:27;;;;;;;2.08;1.98;;;13.70;72.80;;;;;;4936123;28;91861;-78
2020/12/22 12:01:53;;;;;;;2.30;2.20;;;13.70;73.00;;;;;;4931963;28;92017;-77
2020/12/22 12:04:19;;;;;;;0.95;0.80;;;13.70;72.50;;;;;;4931163;28;92669;-79
2020/12/22 12:06:49;;;;;;;2.45;2.25;;;13.70;72.70;;;;;;4923199;28;92546;-77
2020/12/22 12:09:15;;;;;;;2.03;1.92;;;13.90;72.10;;;;;;4925353;28;92172;-78
2020/12/22 12:11:41;;;;;;;1.85;1.75;;;13.90;71.60;;;;;;4938040;28;92226;-78
2020/12/22 12:14:07;;;;;;;1.52;1.52;;;14.00;72.20;;;;;;4929399;28;91895;-76
2020/12/22 12:16:33;;;;;;;2.30;2.10;;;13.90;71.90;;;;;;4939211;28;91909;-76
2020/12/22 12:18:59;;;;;;;3.13;1.90;;;13.80;72.00;;;;;;4936322;28;92147;-78
2020/12/22 12:21:26;;;;;;;3.45;2.65;;;13.80;72.20;;;;;;4933899;28;91374;-79
2020/12/22 12:23:52;;;;;;;2.08;1.98;;;13.70;72.70;;;;;;4922653;28;92342;-78
2020/12/22 12:26:18;;;;;;;1.80;1.70;;;13.40;73.90;;;;;;4930470;28;92049;-77
2020/12/22 12:28:43;;;;;;;1.83;1.73;;;13.30;74.60;;;;;;4932563;28;92653;-76
2020/12/22 12:31:17;;;;;;;2.92;2.08;;;13.20;75.50;;;;;;4912078;28;92124;-76
2020/12/22 12:33:43;;;;;;;1.83;1.73;;;13.00;75.70;;;;;;4936892;28;92086;-78
2020/12/22 12:36:12;;;;;;;1.30;1.23;;;13.00;76.20;;;;;;4928041;28;92748;-78
2020/12/22 12:38:38;;;;;;;1.85;1.75;;;13.00;76.50;;;;;;4934038;28;92089;-78
2020/12/22 12:41:04;;;;;;;2.00;1.90;;;12.90;76.90;;;;;;4924522;28;92058;-78
2020/12/22 12:43:29;;;;;;;1.65;1.55;;;12.90;77.40;;;;;;4923550;28;92241;-76
2020/12/22 12:45:56;;;;;;;2.35;2.15;;;12.80;77.60;;;;;;4935544;28;91252;-77
2020/12/22 12:48:21;;;;;;;2.30;2.10;;;12.70;78.50;;;;;;4937517;28;92153;-78
2020/12/22 12:50:47;;;;;;;2.80;2.50;;;12.50;79.40;;;;;;4936232;28;92070;-77
2020/12/22 12:53:12;;;;;;;5.45;2.35;;;12.40;80.70;;;;;;4933591;28;93654;-78
2020/12/22 12:55:39;;;;;;;3.83;1.27;;;12.20;82.00;;;;;;4938334;28;92911;-79
2020/12/22 12:58:05;;;;;;;3.30;2.40;;;12.10;82.90;;;;;;4940469;28;93139;-78
2020/12/22 13:00:30;;;;;;;2.50;2.30;;;12.00;83.50;;;;;;4939603;28;92135;-78
2020/12/22 13:02:56;;;;;;;2.40;2.20;;;11.90;84.70;;;;;;4932409;28;92235;-77
2020/12/22 13:05:23;;;;;;;2.75;2.38;;;11.90;85.70;;;;;;4922585;28;94310;-78
2020/12/22 13:07:49;;;;;;;2.40;2.17;;;11.80;84.80;;;;;;4939309;28;91967;-77
2020/12/22 13:10:15;;;;;;;4.60;1.95;;;11.80;85.50;;;;;;4936086;28;91355;-78
2020/12/22 13:12:40;;;;;;;3.58;2.50;;;11.80;86.20;;;;;;4935538;28;92045;-77
2020/12/22 13:15:06;;;;;;;2.22;1.83;;;11.90;85.80;;;;;;4940600;28;92468;-79
2020/12/22 13:17:32;;;;;;;2.88;2.30;;;11.90;85.40;;;;;;4940898;28;93239;-77
2020/12/22 13:19:58;;;;;;;1.90;1.80;;;12.00;84.80;;;;;;4943996;28;92057;-77
2020/12/22 13:22:24;;;;;;;2.13;2.03;;;12.00;84.70;;;;;;4935379;28;92207;-78
2020/12/22 13:24:49;;;;;;;2.92;2.10;;;12.10;83.70;;;;;;4940694;28;92085;-79
2020/12/22 13:27:15;;;;;;;2.17;2.08;;;12.10;83.50;;;;;;4930117;28;92035;-78
2020/12/22 13:29:41;;;;;;;2.28;2.17;;;12.10;82.80;;;;;;4941573;28;92019;-78
2020/12/22 13:32:07;;;;;;;2.28;2.17;;;12.10;82.70;;;;;;4933243;28;93239;-77
2020/12/22 13:34:32;;;;;;;2.22;2.13;;;12.10;82.60;;;;;;4939970;28;92164;-80
2020/12/22 13:36:58;;;;;;;2.13;1.92;;;12.10;82.50;;;;;;4933708;28;91775;-78
2020/12/22 13:39:24;;;;;;;1.92;1.83;;;12.10;82.40;;;;;;4935126;28;92301;-78
2020/12/22 13:41:51;;;;;;;1.80;1.70;;;12.10;81.90;;;;;;4933914;28;93243;-78
2020/12/22 13:44:17;;;;;;;1.98;1.88;;;12.10;82.10;;;;;;4941146;28;92823;-79
2020/12/22 13:46:43;;;;;;;2.20;2.10;;;12.10;82.50;;;;;;4936575;28;92003;-78
2020/12/22 13:49:09;;;;;;;2.05;1.95;;;12.10;82.00;;;;;;4940688;28;92030;-78
2020/12/22 13:51:35;;;;;;;1.60;1.50;;;12.10;81.30;;;;;;4940260;28;92015;-77
2020/12/22 13:54:02;;;;;;;1.60;1.50;;;12.10;81.50;;;;;;4933342;28;91952;-79
2020/12/22 13:56:27;;;;;;;2.00;1.90;;;12.10;81.50;;;;;;4934860;28;92078;-77
2020/12/22 13:58:53;;;;;;;2.05;1.95;;;;;;;;;;4936770;28;92761;-78
2020/12/22 14:01:29;;;;;;;2.30;2.20;;;12.10;81.60;;;;;;4939026;28;92662;-77
2020/12/22 14:03:55;;;;;;;2.00;1.90;;;12.10;82.30;;;;;;4934182;28;92375;-77
2020/12/22 14:06:30;;;;;;;2.42;2.33;;;12.10;82.20;;;;;;4936402;28;92943;-77
2020/12/22 14:08:55;;;;;;;2.83;2.63;;;12.10;82.20;;;;;;4940208;28;92100;-79
2020/12/22 14:11:22;;;;;;;2.92;2.72;;;12.10;82.40;;;;;;4942511;28;92038;-79
2020/12/22 14:13:50;;;;;;;4.00;3.60;;;12.10;82.70;;;;;;4941747;28;92120;-78
2020/12/22 14:16:17;;;;;;;2.30;2.10;;;12.10;82.60;;;;;;4944607;28;92127;-77
2020/12/22 14:18:43;;;;;;;2.20;2.10;;;12.10;82.40;;;;;;4939103;28;91863;-77
2020/12/22 14:21:19;;;;;;;2.38;2.28;;;12.20;82.70;;;;;;4935482;28;93069;-78
2020/12/22 14:23:46;;;;;;;1.95;1.85;;;12.20;82.20;;;;;;4943837;28;91962;-79
2020/12/22 14:26:12;;;;;;;2.42;2.22;;;12.20;82.40;;;;;;4937006;28;91995;-78
2020/12/22 14:28:40;;;;;;;1.92;1.80;;;12.30;82.00;;;;;;4920381;28;92141;-78
2020/12/22 14:31:06;;;;;;;2.33;2.13;;;12.30;83.00;;;;;;4927392;28;93245;-77
2020/12/22 14:33:32;;;;;;;2.28;2.10;;;12.20;82.10;;;;;;4942612;28;93744;-79
2020/12/22 14:35:58;;;;;;;2.40;2.30;;;12.20;82.60;;;;;;4944578;28;91996;-78
2020/12/22 14:38:25;;;;;;;2.38;2.17;;;12.20;82.40;;;;;;4944320;28;91793;-78
2020/12/22 14:40:51;;;;;;;3.45;2.30;;;12.20;81.90;;;;;;4942773;28;92321;-78
2020/12/22 14:43:17;;;;;;;1.80;1.70;;;12.20;81.70;;;;;;4941291;28;91363;-77
2020/12/22 14:45:43;;;;;;;2.15;2.05;;;12.30;81.40;;;;;;4943906;28;91940;-77
2020/12/22 14:48:09;;;;;;;1.95;1.85;;;12.30;81.10;;;;;;4946700;28;90869;-77
2020/12/22 14:50:35;;;;;;;6.35;3.47;;;12.30;80.80;;;;;;4943969;28;92249;-78
2020/12/22 14:53:01;;;;;;;3.33;3.03;;;12.40;81.30;;;;;;4939768;28;91715;-78
2020/12/22 14:55:26;;;;;;;1.70;1.60;;;12.30;80.90;;;;;;4940816;28;92714;-77
2020/12/22 14:57:52;;;;;;;2.03;1.92;;;12.30;81.10;;;;;;4929907;28;91798;-77
2020/12/22 15:00:18;;;;;;;2.17;1.98;;;12.30;81.00;;;;;;4937278;28;93382;-78
2020/12/22 15:02:44;;;;;;;2.55;2.35;;;12.20;80.80;;;;;;4929567;28;92390;-77
2020/12/22 15:05:10;;;;;;;3.55;3.17;;;12.20;81.30;;;;;;4936289;28;92011;-78
2020/12/22 15:07:36;;;;;;;2.10;2.00;;;12.20;82.50;;;;;;4940453;28;91968;-77
2020/12/22 15:10:06;;;;;;;2.78;2.58;;;12.10;82.40;;;;;;4936355;28;92262;-76
2020/12/22 15:12:32;;;;;;;2.63;2.42;;;12.10;82.70;;;;;;4933951;28;91360;-78
2020/12/22 15:14:58;;;;;;;2.88;2.60;;;12.00;83.00;;;;;;4942893;28;91787;-77
2020/12/22 15:17:25;;;;;;;2.72;2.53;;;12.00;83.10;;;;;;4936246;28;91990;-78
2020/12/22 15:19:51;;;;;;;3.65;2.22;;;12.00;83.50;;;;;;4943498;28;94337;-77
2020/12/22 15:22:17;;;;;;;4.75;3.05;;;11.90;83.60;;;;;;4935094;28;92085;-78
2020/12/22 15:24:42;;;;;;;11.63;7.55;;;11.80;84.00;;;;;;4918476;28;92145;-78
2020/12/22 15:27:08;;;;;;;19.65;10.23;;;11.80;84.70;;;;;;4944487;28;91497;-77
2020/12/22 15:29:34;;;;;;;15.45;8.07;;;11.70;84.90;;;;;;4936897;28;92382;-79
2020/12/22 15:32:00;;;;;;;20.65;9.85;;;11.70;85.30;;;;;;4941715;28;91843;-79
2020/12/22 15:34:27;;;;;;;8.95;5.20;;;11.60;85.70;;;;;;4934539;28;92072;-78
2020/12/22 15:36:53;;;;;;;13.75;7.00;;;11.60;86.00;;;;;;4943553;28;90959;-80
2020/12/22 15:39:18;;;;;;;14.13;6.55;;;11.40;87.00;;;;;;4943892;28;92265;-79
2020/12/22 15:41:44;;;;;;;12.07;6.40;;;11.40;87.50;;;;;;4940066;28;92006;-79
2020/12/22 15:44:11;;;;;;;2.10;2.00;;;11.40;87.70;;;;;;4925532;28;93023;-78
2020/12/22 15:46:36;;;;;;;4.63;3.20;;;11.40;87.70;;;;;;4937249;28;91812;-79
2020/12/22 15:49:03;;;;;;;13.40;8.20;;;11.40;88.90;;;;;;4931885;28;92481;-79
2020/12/22 15:51:29;;;;;;;4.13;3.20;;;11.40;88.90;;;;;;4942098;28;92453;-79
2020/12/22 15:53:54;;;;;;;7.35;4.05;;;11.40;88.80;;;;;;4938565;28;91905;-80
2020/12/22 15:56:21;;;;;;;3.55;3.13;;;;;;;;;;4939587;28;92078;-79
2020/12/22 15:58:47;;;;;;;7.07;2.90;;;11.20;89.10;;;;;;4936578;28;92237;-80
2020/12/22 16:01:18;;;;;;;8.55;5.40;;;11.10;90.40;;;;;;4934856;28;91607;-79
2020/12/22 16:03:45;;;;;;;6.18;4.00;;;11.00;91.40;;;;;;4937721;28;91827;-78
2020/12/22 16:06:11;;;;;;;5.97;2.78;;;11.00;92.00;;;;;;4920004;28;92184;-79
2020/12/22 16:08:41;;;;;;;3.42;2.88;;;10.90;92.40;;;;;;4938726;28;94113;-79
2020/12/22 16:11:09;;;;;;;3.40;3.00;;;10.90;93.80;;;;;;4940410;28;92123;-79
2020/12/22 16:13:35;;;;;;;12.10;6.45;;;10.90;94.70;;;;;;4937913;28;91972;-78
2020/12/22 16:16:01;;;;;;;5.03;2.20;;;10.90;94.90;;;;;;4942018;28;92212;-80
2020/12/22 16:18:26;;;;;;;3.28;2.97;;;10.90;94.80;;;;;;4940154;28;92186;-80
2020/12/22 16:20:52;;;;;;;3.45;2.90;;;10.90;94.60;;;;;;4938752;28;91863;-79
2020/12/22 16:23:17;;;;;;;3.03;2.38;;;10.90;94.80;;;;;;4950987;28;91917;-80
2020/12/22 16:25:43;;;;;;;3.05;2.80;;;10.90;94.80;;;;;;4956302;28;91463;-79
2020/12/22 16:28:09;;;;;;;3.13;2.88;;;11.00;95.10;;;;;;4959396;28;92090;-81
2020/12/22 16:30:34;;;;;;;3.67;3.30;;;11.00;95.10;;;;;;4951937;28;91855;-79
2020/12/22 16:33:00;;;;;;;3.17;2.88;;;11.10;95.00;;;;;;4945990;28;92475;-81
2020/12/22 16:35:26;;;;;;;2.80;2.60;;;11.10;94.60;;;;;;4945513;28;92228;-81
2020/12/22 16:37:54;;;;;;;3.38;2.40;;;11.10;95.30;;;;;;4944607;28;92298;-79
2020/12/22 16:40:20;;;;;;;4.13;3.67;;;11.00;95.70;;;;;;4941692;28;92995;-80
2020/12/22 16:42:47;;;;;;;4.22;3.40;;;11.00;95.70;;;;;;4942229;28;92080;-81